createdAt,value
2019-02-22T00:00:19.511Z,30.00
2019-02-22T00:01:20.005Z,29.70
2019-02-22T00:02:19.484Z,27.90
2019-02-22T00:03:19.477Z,28.70
2019-02-22T00:04:19.484Z,30.10
2019-02-22T00:05:19.457Z,30.50
2019-02-22T00:06:19.439Z,28.60
2019-02-22T00:07:19.456Z,28.40
2019-02-22T00:08:19.445Z,28.50
2019-02-22T00:09:19.417Z,28.10
2019-02-22T00:10:19.446Z,30.90
2019-02-22T00:11:19.397Z,30.50
2019-02-22T00:12:19.376Z,29.00
2019-02-22T00:13:19.690Z,28.30
2019-02-22T00:14:19.371Z,28.80
2019-02-22T00:15:19.352Z,30.40
2019-02-22T00:16:19.411Z,31.40
2019-02-22T00:17:19.313Z,28.10
2019-02-22T00:18:19.316Z,29.10
2019-02-22T00:19:19.290Z,30.10
2019-02-22T00:20:19.349Z,30.90
2019-02-22T00:21:19.288Z,31.20
2019-02-22T00:22:19.323Z,31.90
2019-02-22T00:23:19.252Z,28.20
2019-02-22T00:24:19.262Z,29.40
2019-02-22T00:25:19.747Z,30.00
2019-02-22T00:26:19.245Z,26.60
2019-02-22T00:27:19.227Z,29.20
2019-02-22T00:28:19.235Z,30.70
2019-02-22T00:29:19.209Z,27.90
2019-02-22T00:30:21.511Z,28.80
2019-02-22T00:31:19.173Z,28.70
2019-02-22T00:32:19.622Z,29.10
2019-02-22T00:33:19.162Z,29.80
2019-02-22T00:34:19.242Z,30.70
2019-02-22T00:35:19.137Z,27.30
2019-02-22T00:36:19.194Z,29.20
2019-02-22T00:37:19.177Z,30.80
2019-02-22T00:38:19.092Z,27.80
2019-02-22T00:39:19.447Z,26.30
2019-02-22T00:40:19.112Z,30.90
2019-02-22T00:41:19.070Z,28.80
2019-02-22T00:42:19.040Z,29.50
2019-02-22T00:43:19.048Z,27.80
2019-02-22T00:44:19.164Z,27.70
2019-02-22T00:45:21.754Z,26.30
2019-02-22T00:46:19.522Z,30.20
2019-02-22T00:47:18.994Z,28.40
2019-02-22T00:48:18.990Z,26.80
2019-02-22T00:49:18.997Z,27.30
2019-02-22T00:50:18.959Z,27.00
2019-02-22T00:51:18.950Z,27.00
2019-02-22T00:52:19.202Z,29.90
2019-02-22T00:53:20.148Z,28.90
2019-02-22T00:54:18.924Z,26.50
2019-02-22T00:55:18.920Z,27.50
2019-02-22T00:56:18.905Z,29.30
2019-02-22T00:57:18.895Z,27.10
2019-02-22T00:58:19.756Z,27.40
2019-02-22T00:59:18.864Z,26.80
2019-02-22T01:00:19.374Z,28.20
2019-02-22T01:01:18.840Z,25.80
2019-02-22T01:02:18.834Z,28.50
2019-02-22T01:03:18.837Z,26.80
2019-02-22T01:04:18.854Z,28.90
2019-02-22T01:05:18.836Z,27.40
2019-02-22T01:06:18.785Z,28.40
2019-02-22T01:07:18.801Z,27.90
2019-02-22T01:08:18.774Z,29.10
2019-02-22T01:09:18.767Z,28.30
2019-02-22T01:10:18.886Z,27.50
2019-02-22T01:11:18.758Z,27.50
2019-02-22T01:12:18.733Z,28.50
2019-02-22T01:13:19.033Z,28.60
2019-02-22T01:14:18.707Z,26.60
2019-02-22T01:15:18.722Z,28.80
2019-02-22T01:16:18.712Z,25.90
2019-02-22T01:17:18.671Z,25.70
2019-02-22T01:18:18.680Z,27.10
2019-02-22T01:19:18.642Z,27.80
2019-02-22T01:20:20.117Z,26.50
2019-02-22T01:21:18.648Z,24.00
2019-02-22T01:22:18.662Z,27.00
2019-02-22T01:23:18.597Z,23.50
2019-02-22T01:24:19.233Z,30.00
2019-02-22T01:25:18.610Z,25.50
2019-02-22T01:26:18.592Z,25.60
2019-02-22T01:27:18.931Z,24.40
2019-02-22T01:28:18.838Z,27.60
2019-02-22T01:29:18.541Z,25.80
2019-02-22T01:30:18.531Z,25.30
2019-02-22T01:31:18.529Z,23.90
2019-02-22T01:32:18.531Z,26.60
2019-02-22T01:33:18.525Z,25.20
2019-02-22T01:34:19.217Z,23.40
2019-02-22T01:35:18.473Z,22.50
2019-02-22T01:36:18.454Z,24.50
2019-02-22T01:37:18.462Z,25.20
2019-02-22T01:38:18.473Z,23.20
2019-02-22T01:39:18.456Z,22.60
2019-02-22T01:40:18.461Z,24.20
2019-02-22T01:41:18.829Z,23.80
2019-02-22T01:42:18.398Z,23.00
2019-02-22T01:43:18.415Z,24.80
2019-02-22T01:44:18.385Z,24.50
2019-02-22T01:45:18.381Z,23.30
2019-02-22T01:46:18.712Z,23.00
2019-02-22T01:47:18.347Z,23.90
2019-02-22T01:48:18.852Z,24.60
2019-02-22T01:49:18.338Z,23.90
2019-02-22T01:50:18.309Z,23.30
2019-02-22T01:51:18.297Z,24.10
2019-02-22T01:52:18.374Z,23.30
2019-02-22T01:53:18.303Z,23.60
2019-02-22T01:54:18.273Z,24.00
2019-02-22T01:55:18.702Z,22.60
2019-02-22T01:56:18.251Z,25.20
2019-02-22T01:57:18.226Z,24.20
2019-02-22T01:58:18.276Z,25.40
2019-02-22T01:59:18.206Z,27.20
2019-02-22T02:00:18.226Z,25.00
2019-02-22T02:01:18.198Z,23.30
2019-02-22T02:02:18.545Z,23.80
2019-02-22T02:03:18.217Z,25.90
2019-02-22T02:04:18.214Z,25.40
2019-02-22T02:05:18.151Z,23.90
2019-02-22T02:06:18.164Z,26.40
2019-02-22T02:07:18.122Z,24.80
2019-02-22T02:08:18.112Z,24.30
2019-02-22T02:09:18.606Z,27.00
2019-02-22T02:10:18.150Z,25.90
2019-02-22T02:11:18.091Z,23.40
2019-02-22T02:12:18.092Z,25.40
2019-02-22T02:13:18.063Z,26.40
2019-02-22T02:14:18.042Z,24.10
2019-02-22T02:15:18.053Z,25.40
2019-02-22T02:16:18.447Z,22.30
2019-02-22T02:17:18.027Z,26.10
2019-02-22T02:18:18.006Z,24.10
2019-02-22T02:19:18.005Z,24.90
2019-02-22T02:20:18.030Z,21.40
2019-02-22T02:21:17.978Z,22.80
2019-02-22T02:22:18.206Z,25.90
2019-02-22T02:23:18.466Z,26.40
2019-02-22T02:24:18.737Z,23.70
2019-02-22T02:25:17.921Z,26.10
2019-02-22T02:26:17.921Z,23.80
2019-02-22T02:27:17.905Z,22.30
2019-02-22T02:28:17.979Z,23.30
2019-02-22T02:29:17.882Z,23.70
2019-02-22T02:30:19.319Z,23.00
2019-02-22T02:31:17.863Z,24.50
2019-02-22T02:32:17.861Z,22.20
2019-02-22T02:33:17.843Z,25.20
2019-02-22T02:34:18.682Z,23.60
2019-02-22T02:35:17.845Z,27.40
2019-02-22T02:36:17.831Z,26.10
2019-02-22T02:37:18.142Z,22.50
2019-02-22T02:38:17.791Z,24.30
2019-02-22T02:39:17.790Z,24.20
2019-02-22T02:40:18.069Z,23.50
2019-02-22T02:41:17.769Z,25.70
2019-02-22T02:42:17.765Z,21.70
2019-02-22T02:43:17.734Z,24.20
2019-02-22T02:44:18.199Z,23.90
2019-02-22T02:45:17.798Z,23.00
2019-02-22T02:46:17.757Z,22.70
2019-02-22T02:47:17.711Z,23.60
2019-02-22T02:48:17.695Z,22.70
2019-02-22T02:49:17.685Z,25.40
2019-02-22T02:50:17.655Z,25.10
2019-02-22T02:51:18.038Z,24.00
2019-02-22T02:52:17.692Z,26.10
2019-02-22T02:53:17.632Z,28.40
2019-02-22T02:54:17.632Z,26.90
2019-02-22T02:55:17.597Z,27.20
2019-02-22T02:56:17.605Z,24.80
2019-02-22T02:57:17.590Z,25.30
2019-02-22T02:58:18.736Z,26.70
2019-02-22T02:59:17.558Z,26.00
2019-02-22T03:01:42.377Z,24.30
2019-02-22T03:02:42.186Z,23.80
2019-02-22T03:03:42.176Z,24.50
2019-02-22T03:04:42.151Z,26.10
2019-02-22T03:05:42.155Z,23.70
2019-02-22T03:06:42.152Z,27.00
2019-02-22T03:07:42.466Z,24.60
2019-02-22T03:08:42.134Z,26.80
2019-02-22T03:09:48.940Z,26.10
2019-02-22T03:10:42.092Z,26.80
2019-02-22T03:11:42.086Z,28.10
2019-02-22T03:12:42.074Z,25.80
2019-02-22T03:13:42.095Z,26.20
2019-02-22T03:14:42.067Z,27.20
2019-02-22T03:15:42.036Z,28.00
2019-02-22T03:16:42.022Z,25.80
2019-02-22T03:17:42.027Z,26.10
2019-02-22T03:18:42.015Z,26.30
2019-02-22T03:19:43.174Z,31.10
2019-02-22T03:20:41.984Z,28.90
2019-02-22T03:21:41.971Z,25.50
2019-02-22T03:22:41.969Z,25.50
2019-02-22T03:23:41.975Z,26.10
2019-02-22T03:24:41.942Z,28.20
2019-02-22T03:25:42.036Z,26.60
2019-02-22T03:26:42.213Z,27.90
2019-02-22T03:27:41.937Z,28.50
2019-02-22T03:28:41.901Z,26.40
2019-02-22T03:29:41.896Z,26.40
2019-02-22T03:30:41.903Z,24.80
2019-02-22T03:31:41.945Z,25.30
2019-02-22T03:32:41.872Z,25.90
2019-02-22T03:33:42.262Z,25.40
2019-02-22T03:34:41.841Z,25.30
2019-02-22T03:35:41.824Z,25.10
2019-02-22T03:36:41.836Z,25.20
2019-02-22T03:37:41.914Z,24.10
2019-02-22T03:38:41.839Z,25.90
2019-02-22T03:39:41.787Z,25.40
2019-02-22T03:40:42.115Z,26.80
2019-02-22T03:41:41.772Z,25.20
2019-02-22T03:42:41.757Z,26.80
2019-02-22T03:43:41.793Z,26.20
2019-02-22T03:44:41.724Z,25.40
2019-02-22T03:45:41.721Z,27.50
2019-02-22T03:46:41.708Z,26.70
2019-02-22T03:47:42.023Z,28.00
2019-02-22T03:48:42.443Z,26.50
2019-02-22T03:49:41.722Z,28.80
2019-02-22T03:50:41.673Z,25.00
2019-02-22T03:51:41.671Z,25.70
2019-02-22T03:52:41.648Z,25.80
2019-02-22T03:53:41.636Z,28.40
2019-02-22T03:54:41.966Z,26.90
2019-02-22T03:55:41.780Z,23.60
2019-02-22T03:56:41.607Z,27.50
2019-02-22T03:57:41.596Z,25.60
2019-02-22T03:58:41.602Z,28.00
2019-02-22T03:59:41.577Z,25.50
2019-02-22T04:00:41.564Z,23.60
2019-02-22T04:01:41.587Z,25.00
2019-02-22T04:02:41.537Z,26.40
2019-02-22T04:03:41.531Z,25.90
2019-02-22T04:04:41.567Z,25.60
2019-02-22T04:05:41.514Z,24.70
2019-02-22T04:06:41.525Z,23.50
2019-02-22T04:07:41.833Z,29.00
2019-02-22T04:08:41.510Z,27.40
2019-02-22T04:09:41.476Z,23.50
2019-02-22T04:10:41.472Z,28.30
2019-02-22T04:11:45.703Z,25.20
2019-02-22T04:12:41.447Z,26.40
2019-02-22T04:13:41.917Z,27.60
2019-02-22T04:14:41.724Z,20.00
2019-02-22T04:15:41.413Z,26.50
2019-02-22T04:16:41.419Z,24.10
2019-02-22T04:17:41.435Z,23.70
2019-02-22T04:18:41.405Z,25.50
2019-02-22T04:19:41.416Z,23.60
2019-02-22T04:20:41.358Z,23.40
2019-02-22T04:21:41.645Z,21.60
2019-02-22T04:22:44.271Z,23.70
2019-02-22T04:23:41.319Z,22.70
2019-02-22T04:24:41.319Z,23.30
2019-02-22T04:25:41.347Z,23.20
2019-02-22T04:26:41.289Z,24.10
2019-02-22T04:27:41.267Z,22.90
2019-02-22T04:28:41.586Z,23.80
2019-02-22T04:29:41.264Z,24.90
2019-02-22T04:30:41.246Z,23.90
2019-02-22T04:31:41.312Z,20.40
2019-02-22T04:32:41.241Z,23.70
2019-02-22T04:33:41.215Z,23.40
2019-02-22T04:34:41.227Z,21.40
2019-02-22T04:35:41.497Z,22.90
2019-02-22T04:36:41.193Z,24.00
2019-02-22T04:37:41.207Z,25.40
2019-02-22T04:38:41.152Z,24.80
2019-02-22T04:39:41.161Z,22.30
2019-02-22T04:40:41.131Z,25.70
2019-02-22T04:41:41.200Z,23.30
2019-02-22T04:42:41.502Z,21.90
2019-02-22T04:43:41.156Z,23.80
2019-02-22T04:44:41.102Z,25.70
2019-02-22T04:45:41.105Z,23.70
2019-02-22T04:46:41.075Z,25.00
2019-02-22T04:47:41.086Z,24.60
2019-02-22T04:48:41.153Z,23.90
2019-02-22T04:49:41.770Z,22.50
2019-02-22T04:50:41.024Z,24.20
2019-02-22T04:51:41.024Z,23.90
2019-02-22T04:52:41.041Z,22.20
2019-02-22T04:53:41.002Z,22.90
2019-02-22T04:54:40.991Z,26.50
2019-02-22T04:55:41.022Z,23.10
2019-02-22T04:56:41.386Z,23.60
2019-02-22T04:57:41.972Z,27.40
2019-02-22T04:58:40.951Z,24.40
2019-02-22T04:59:41.431Z,25.40
2019-02-22T05:00:40.926Z,25.30
2019-02-22T05:01:40.976Z,25.20
2019-02-22T05:02:40.910Z,25.00
2019-02-22T05:03:41.827Z,25.70
2019-02-22T05:04:40.888Z,26.60
2019-02-22T05:05:40.866Z,26.70
2019-02-22T05:06:40.858Z,24.50
2019-02-22T05:07:41.225Z,26.80
2019-02-22T05:08:40.838Z,24.40
2019-02-22T05:09:40.815Z,26.90
2019-02-22T05:10:41.261Z,27.10
2019-02-22T05:11:40.954Z,27.30
2019-02-22T05:12:40.799Z,28.80
2019-02-22T05:13:40.815Z,27.60
2019-02-22T05:14:40.781Z,28.20
2019-02-22T05:15:40.766Z,25.30
2019-02-22T05:16:40.747Z,26.50
2019-02-22T05:17:41.107Z,27.70
2019-02-22T05:18:40.736Z,25.80
2019-02-22T05:19:40.776Z,25.50
2019-02-22T05:20:40.726Z,28.10
2019-02-22T05:21:40.798Z,27.20
2019-02-22T05:22:40.685Z,27.70
2019-02-22T05:23:41.135Z,28.30
2019-02-22T05:24:41.082Z,26.80
2019-02-22T05:25:40.719Z,25.10
2019-02-22T05:26:40.650Z,26.60
2019-02-22T05:27:40.631Z,28.90
2019-02-22T05:28:40.623Z,25.60
2019-02-22T05:29:40.689Z,26.30
2019-02-22T05:30:40.607Z,28.70
2019-02-22T05:31:40.631Z,26.00
2019-02-22T05:32:40.576Z,24.50
2019-02-22T05:33:40.566Z,29.00
2019-02-22T05:34:40.565Z,27.70
2019-02-22T05:35:40.546Z,26.40
2019-02-22T05:36:40.587Z,29.30
2019-02-22T05:37:41.105Z,29.90
2019-02-22T05:38:40.506Z,27.70
2019-02-22T05:39:40.510Z,29.30
2019-02-22T05:40:40.509Z,30.40
2019-02-22T05:41:40.475Z,26.40
2019-02-22T05:42:40.462Z,30.50
2019-02-22T05:43:40.766Z,27.10
2019-02-22T05:44:40.780Z,29.40
2019-02-22T05:45:40.455Z,30.10
2019-02-22T05:46:40.444Z,26.20
2019-02-22T05:47:40.452Z,28.80
2019-02-22T05:48:40.404Z,27.70
2019-02-22T05:49:40.634Z,29.60
2019-02-22T05:50:40.397Z,31.00
2019-02-22T05:51:40.693Z,31.20
2019-02-22T05:52:40.410Z,30.40
2019-02-22T05:53:40.410Z,31.60
2019-02-22T05:54:40.350Z,29.80
2019-02-22T05:55:40.467Z,28.90
2019-02-22T05:56:40.319Z,30.70
2019-02-22T05:57:40.312Z,31.60
2019-02-22T05:58:40.637Z,30.30
2019-02-22T05:59:40.293Z,30.50
2019-02-22T06:00:40.286Z,28.40
2019-02-22T06:01:40.343Z,29.10
2019-02-22T06:02:40.253Z,30.30
2019-02-22T06:03:41.049Z,28.10
2019-02-22T06:04:40.236Z,27.50
2019-02-22T06:05:40.614Z,27.70
2019-02-22T06:06:40.442Z,26.70
2019-02-22T06:07:40.566Z,28.40
2019-02-22T06:08:40.298Z,28.20
2019-02-22T06:09:40.212Z,28.70
2019-02-22T06:10:40.190Z,30.10
2019-02-22T06:11:40.257Z,30.30
2019-02-22T06:12:43.518Z,27.20
2019-02-22T06:13:40.380Z,28.60
2019-02-22T06:14:40.287Z,28.80
2019-02-22T06:15:40.957Z,32.30
2019-02-22T06:16:40.219Z,29.00
2019-02-22T06:17:40.312Z,30.90
2019-02-22T06:18:41.142Z,28.40
2019-02-22T06:20:49.627Z,25.90
2019-02-22T06:21:49.505Z,27.50
2019-02-22T06:22:48.976Z,27.10
2019-02-22T06:23:49.647Z,32.20
2019-02-22T06:24:48.897Z,30.00
2019-02-22T06:25:48.963Z,27.30
2019-02-22T06:26:53.264Z,27.50
2019-02-22T06:27:48.974Z,27.70
2019-02-22T06:28:48.841Z,28.20
2019-02-22T06:29:49.864Z,31.00
2019-02-22T06:30:48.893Z,31.30
2019-02-22T06:31:48.781Z,28.50
2019-02-22T06:32:48.802Z,29.00
2019-02-22T06:33:50.789Z,30.60
2019-02-22T06:34:49.513Z,29.40
2019-02-22T06:35:49.105Z,31.20
2019-02-22T06:37:00.740Z,25.20
2019-02-22T06:37:49.880Z,29.40
2019-02-22T06:38:49.711Z,27.10
2019-02-22T06:39:49.158Z,30.40
2019-02-22T06:40:48.707Z,29.00
2019-02-22T06:41:48.815Z,29.60
2019-02-22T06:42:48.894Z,26.80
2019-02-22T06:43:48.612Z,30.20
2019-02-22T06:44:48.558Z,30.00
2019-02-22T06:45:48.532Z,29.90
2019-02-22T06:46:49.165Z,29.10
2019-02-22T06:47:49.065Z,32.60
2019-02-22T06:48:48.753Z,31.90
2019-02-22T06:49:49.749Z,31.60
2019-02-22T06:50:48.502Z,33.00
2019-02-22T06:51:49.540Z,30.60
2019-02-22T06:52:48.463Z,31.40
2019-02-22T06:53:48.875Z,32.90
2019-02-22T06:54:48.532Z,32.10
2019-02-22T06:55:48.431Z,33.10
2019-02-22T06:56:48.417Z,33.30
2019-02-22T06:57:48.416Z,31.10
2019-02-22T06:58:48.427Z,31.60
2019-02-22T06:59:48.505Z,33.60
2019-02-22T07:00:49.602Z,33.60
2019-02-22T07:01:49.983Z,31.40
2019-02-22T07:02:48.605Z,29.60
2019-02-22T07:03:48.397Z,31.60
2019-02-22T07:04:48.747Z,28.90
2019-02-22T07:05:48.401Z,31.20
2019-02-22T07:07:58.037Z,31.90
2019-02-22T07:08:57.528Z,32.60
2019-02-22T07:09:57.627Z,32.10
2019-02-22T07:10:57.501Z,38.60
2019-02-22T07:11:57.588Z,27.60
2019-02-22T07:12:57.587Z,32.80
2019-02-22T07:13:57.682Z,33.60
2019-02-22T07:14:58.012Z,32.70
2019-02-22T07:15:58.327Z,31.20
2019-02-22T07:16:57.512Z,31.70
2019-02-22T07:17:57.501Z,35.10
2019-02-22T07:19:00.326Z,33.90
2019-02-22T07:19:57.462Z,33.30
2019-02-22T07:20:57.498Z,30.20
2019-02-22T07:21:57.405Z,31.50
2019-02-22T07:22:57.373Z,31.90
2019-02-22T07:23:57.386Z,31.50
2019-02-22T07:24:57.374Z,38.50
2019-02-22T07:25:59.412Z,31.10
2019-02-22T07:26:57.450Z,34.80
2019-02-22T07:27:57.709Z,31.60
2019-02-22T07:28:57.331Z,31.80
2019-02-22T07:29:57.308Z,28.90
2019-02-22T07:30:57.299Z,30.80
2019-02-22T07:32:05.350Z,28.30
2019-02-22T07:32:58.402Z,26.20
2019-02-22T07:33:57.337Z,32.00
2019-02-22T07:34:57.267Z,31.10
2019-02-22T07:35:57.246Z,30.40
2019-02-22T07:36:57.234Z,31.70
2019-02-22T07:37:57.324Z,30.30
2019-02-22T07:38:57.251Z,32.50
2019-02-22T07:39:57.498Z,34.20
2019-02-22T07:40:57.216Z,32.40
2019-02-22T07:42:32.832Z,33.70
2019-02-22T07:43:07.545Z,32.10
2019-02-22T07:43:58.196Z,34.30
2019-02-22T07:44:57.279Z,33.20
2019-02-22T07:46:02.877Z,30.40
2019-02-22T07:46:57.129Z,30.60
2019-02-22T07:47:58.151Z,29.00
2019-02-22T07:48:57.096Z,33.90
2019-02-22T07:49:57.448Z,33.10
2019-02-22T07:50:58.529Z,31.10
2019-02-22T07:51:57.073Z,31.10
2019-02-22T07:52:57.493Z,33.60
2019-02-22T07:53:57.068Z,32.30
2019-02-22T07:54:57.058Z,29.30
2019-02-22T07:55:57.067Z,34.20
2019-02-22T07:56:57.800Z,36.00
2019-02-22T07:57:57.841Z,32.70
2019-02-22T07:58:56.995Z,31.90
2019-02-22T07:59:56.996Z,32.60
2019-02-22T08:00:56.966Z,31.80
2019-02-22T08:01:57.027Z,36.00
2019-02-22T08:02:56.949Z,35.20
2019-02-22T08:03:56.961Z,32.10
2019-02-22T08:04:56.956Z,30.90
2019-02-22T08:05:56.922Z,35.90
2019-02-22T08:06:56.920Z,32.50
2019-02-22T08:07:57.186Z,35.30
2019-02-22T08:08:56.910Z,32.40
2019-02-22T08:09:56.895Z,35.20
2019-02-22T08:10:56.864Z,32.90
2019-02-22T08:11:56.881Z,34.30
2019-02-22T08:12:56.856Z,35.30
2019-02-22T08:13:56.898Z,32.50
2019-02-22T08:14:56.894Z,33.30
2019-02-22T08:15:56.823Z,37.30
2019-02-22T08:16:56.841Z,37.80
2019-02-22T08:17:56.800Z,36.10
2019-02-22T08:19:01.509Z,32.70
2019-02-22T08:19:57.824Z,36.30
2019-02-22T08:20:56.764Z,32.00
2019-02-22T08:21:56.820Z,31.90
2019-02-22T08:22:56.736Z,36.30
2019-02-22T08:23:56.708Z,33.60
2019-02-22T08:24:56.740Z,30.80
2019-02-22T08:25:56.802Z,39.10
2019-02-22T08:26:56.687Z,33.80
2019-02-22T08:27:56.697Z,40.50
2019-02-22T08:28:56.678Z,34.90
2019-02-22T08:29:57.194Z,36.60
2019-02-22T08:30:56.690Z,35.60
2019-02-22T08:31:56.677Z,39.10
2019-02-22T08:32:56.641Z,39.60
2019-02-22T08:33:57.231Z,30.50
2019-02-22T08:34:56.605Z,38.80
2019-02-22T08:35:56.610Z,38.30
2019-02-22T08:36:56.584Z,37.60
2019-02-22T08:37:56.669Z,33.40
2019-02-22T08:38:56.833Z,32.80
2019-02-22T08:39:58.841Z,39.40
2019-02-22T08:40:56.541Z,32.20
2019-02-22T08:41:57.996Z,37.80
2019-02-22T08:42:56.524Z,40.20
2019-02-22T08:43:56.567Z,36.40
2019-02-22T08:44:56.510Z,39.00
2019-02-22T08:45:56.560Z,35.30
2019-02-22T08:46:56.477Z,34.20
2019-02-22T08:47:56.573Z,36.30
2019-02-22T08:48:56.451Z,31.80
2019-02-22T08:49:56.525Z,33.00
2019-02-22T08:50:56.432Z,35.40
2019-02-22T08:51:56.416Z,35.00
2019-02-22T08:52:56.492Z,35.10
2019-02-22T08:53:56.453Z,33.80
2019-02-22T08:54:56.838Z,30.40
2019-02-22T08:55:56.461Z,35.00
2019-02-22T08:56:56.399Z,34.50
2019-02-22T08:57:56.372Z,40.90
2019-02-22T08:58:56.352Z,37.60
2019-02-22T08:59:56.385Z,36.60
2019-02-22T09:00:56.325Z,43.70
2019-02-22T09:01:56.783Z,44.30
2019-02-22T09:02:56.312Z,45.10
2019-02-22T09:03:56.289Z,38.90
2019-02-22T09:04:56.318Z,47.40
2019-02-22T09:05:56.293Z,44.00
2019-02-22T09:06:56.297Z,40.60
2019-02-22T09:07:56.334Z,46.90
2019-02-22T09:08:56.259Z,42.10
2019-02-22T09:09:56.235Z,38.20
2019-02-22T09:11:00.590Z,41.20
2019-02-22T09:11:57.721Z,35.90
2019-02-22T09:12:56.203Z,41.80
2019-02-22T09:13:56.281Z,35.10
2019-02-22T09:14:56.187Z,40.90
2019-02-22T09:15:56.306Z,38.20
2019-02-22T09:16:56.306Z,39.40
2019-02-22T09:17:56.155Z,43.10
2019-02-22T09:18:56.137Z,38.80
2019-02-22T09:19:56.366Z,41.70
2019-02-22T09:20:56.106Z,41.70
2019-02-22T09:21:56.750Z,38.30
2019-02-22T09:22:56.128Z,40.50
2019-02-22T09:23:56.125Z,36.30
2019-02-22T09:24:56.323Z,37.50
2019-02-22T09:25:59.249Z,44.30
2019-02-22T09:26:56.830Z,36.50
2019-02-22T09:27:57.793Z,45.00
2019-02-22T09:28:57.872Z,38.20
2019-02-22T09:29:59.106Z,37.80
2019-02-22T09:30:56.816Z,38.00
2019-02-22T09:31:56.515Z,38.30
2019-02-22T09:32:56.122Z,34.80
2019-02-22T09:33:56.248Z,35.30
2019-02-22T09:34:55.978Z,43.20
2019-02-22T09:35:56.037Z,38.80
2019-02-22T09:36:56.833Z,38.00
2019-02-22T09:37:56.041Z,35.50
2019-02-22T09:38:55.935Z,39.20
2019-02-22T09:39:56.793Z,42.20
2019-02-22T09:40:56.852Z,42.30
2019-02-22T09:41:56.068Z,37.90
2019-02-22T09:42:56.735Z,35.90
2019-02-22T09:43:56.763Z,35.90
2019-02-22T09:44:55.870Z,40.20
2019-02-22T09:45:55.847Z,39.00
2019-02-22T09:47:00.789Z,38.70
2019-02-22T09:47:56.721Z,37.60
2019-02-22T09:48:56.045Z,36.60
2019-02-22T09:49:55.865Z,42.50
2019-02-22T09:50:55.827Z,39.60
2019-02-22T09:51:55.812Z,41.80
2019-02-22T09:52:55.768Z,33.90
2019-02-22T09:53:55.763Z,37.30
2019-02-22T09:54:55.779Z,38.20
2019-02-22T09:55:57.390Z,43.10
2019-02-22T09:56:55.846Z,36.70
2019-02-22T09:57:55.733Z,34.20
2019-02-22T09:58:55.783Z,38.10
2019-02-22T09:59:55.706Z,34.70
2019-02-22T10:00:55.686Z,36.90
2019-02-22T10:01:55.762Z,41.30
2019-02-22T10:02:55.709Z,35.90
2019-02-22T10:03:56.713Z,39.00
2019-02-22T10:04:55.731Z,32.30
2019-02-22T10:05:55.712Z,37.90
2019-02-22T10:06:55.630Z,35.40
2019-02-22T10:07:55.657Z,34.70
2019-02-22T10:08:56.280Z,32.40
2019-02-22T10:09:55.596Z,31.30
2019-02-22T10:10:55.578Z,26.60
2019-02-22T10:11:55.604Z,32.00
2019-02-22T10:12:55.560Z,34.90
2019-02-22T10:14:06.361Z,34.30
2019-02-22T10:14:56.542Z,30.10
2019-02-22T10:15:55.567Z,38.90
2019-02-22T10:16:55.532Z,31.30
2019-02-22T10:17:55.535Z,26.20
2019-02-22T10:18:55.528Z,27.20
2019-02-22T10:19:55.727Z,32.20
2019-02-22T10:20:55.472Z,33.30
2019-02-22T10:21:57.511Z,29.60
2019-02-22T10:22:55.466Z,25.90
2019-02-22T10:23:55.448Z,29.10
2019-02-22T10:24:55.446Z,29.70
2019-02-22T10:25:55.456Z,28.10
2019-02-22T10:26:55.446Z,25.60
2019-02-22T10:27:55.410Z,31.40
2019-02-22T10:28:55.386Z,25.10
2019-02-22T10:29:55.433Z,27.70
2019-02-22T10:30:55.387Z,29.50
2019-02-22T10:31:55.431Z,29.20
2019-02-22T10:32:55.433Z,29.30
2019-02-22T10:33:55.479Z,30.50
2019-02-22T10:34:55.312Z,25.00
2019-02-22T10:35:55.317Z,28.60
2019-02-22T10:36:55.309Z,26.90
2019-02-22T10:37:55.332Z,29.40
2019-02-22T10:38:58.376Z,28.10
2019-02-22T10:39:55.308Z,25.60
2019-02-22T10:40:55.288Z,26.30
2019-02-22T10:41:55.263Z,24.50
2019-02-22T10:42:55.253Z,23.40
2019-02-22T10:43:55.286Z,24.40
2019-02-22T10:44:55.217Z,23.70
2019-02-22T10:45:55.215Z,23.20
2019-02-22T10:46:55.198Z,21.60
2019-02-22T10:47:55.277Z,22.30
2019-02-22T10:48:55.173Z,22.20
2019-02-22T10:49:55.352Z,27.30
2019-02-22T10:50:55.158Z,23.90
2019-02-22T10:51:55.183Z,30.50
2019-02-22T10:53:02.146Z,25.50
2019-02-22T10:53:56.826Z,25.70
2019-02-22T10:54:55.114Z,29.40
2019-02-22T10:55:55.363Z,25.60
2019-02-22T10:56:55.123Z,25.10
2019-02-22T10:57:55.095Z,27.70
2019-02-22T10:58:55.077Z,31.70
2019-02-22T10:59:55.061Z,23.80
2019-02-22T11:01:01.797Z,24.80
2019-02-22T11:01:55.096Z,25.90
2019-02-22T11:02:55.758Z,23.90
2019-02-22T11:03:55.042Z,22.50
2019-02-22T11:04:54.995Z,23.10
2019-02-22T11:05:55.805Z,24.40
2019-02-22T11:06:55.003Z,25.30
2019-02-22T11:07:56.760Z,31.00
2019-02-22T11:08:54.971Z,26.40
2019-02-22T11:09:55.112Z,26.90
2019-02-22T11:10:54.927Z,25.20
2019-02-22T11:11:54.940Z,26.70
2019-02-22T11:12:54.937Z,29.10
2019-02-22T11:13:55.323Z,25.10
2019-02-22T11:14:55.883Z,24.80
2019-02-22T11:15:54.928Z,26.20
2019-02-22T11:16:54.892Z,25.70
2019-02-22T11:17:54.865Z,25.90
2019-02-22T11:18:54.898Z,25.70
2019-02-22T11:19:54.877Z,22.10
2019-02-22T11:20:55.337Z,26.70
2019-02-22T11:21:54.833Z,24.00
2019-02-22T11:22:54.805Z,28.70
2019-02-22T11:23:54.806Z,24.60
2019-02-22T11:24:54.783Z,24.80
2019-02-22T11:25:54.878Z,26.10
2019-02-22T11:26:54.794Z,24.30
2019-02-22T11:27:55.782Z,26.20
2019-02-22T11:28:54.760Z,30.00
2019-02-22T11:29:54.762Z,31.00
2019-02-22T11:30:54.728Z,25.40
2019-02-22T11:31:54.752Z,25.20
2019-02-22T11:32:54.729Z,19.70
2019-02-22T11:33:55.191Z,16.30
2019-02-22T11:34:54.692Z,18.40
2019-02-22T11:35:54.689Z,19.50
2019-02-22T11:36:54.659Z,17.30
2019-02-22T11:37:54.793Z,13.90
2019-02-22T11:38:54.683Z,20.00
2019-02-22T11:39:54.625Z,16.90
2019-02-22T11:40:54.674Z,19.50
2019-02-22T11:41:54.653Z,20.00
2019-02-22T11:42:55.196Z,18.00
2019-02-22T11:43:54.672Z,17.90
2019-02-22T11:44:54.570Z,18.80
2019-02-22T11:45:54.628Z,19.20
2019-02-22T11:46:54.554Z,16.50
2019-02-22T11:47:54.548Z,20.40
2019-02-22T11:48:54.536Z,23.10
2019-02-22T11:49:54.686Z,20.30
2019-02-22T11:50:54.517Z,21.60
2019-02-22T11:51:56.012Z,23.30
2019-02-22T11:52:54.483Z,16.50
2019-02-22T11:53:54.472Z,22.80
2019-02-22T11:54:54.488Z,18.60
2019-02-22T11:55:54.487Z,22.20
2019-02-22T11:56:54.507Z,21.70
2019-02-22T11:57:54.438Z,20.00
2019-02-22T11:58:54.502Z,20.50
2019-02-22T11:59:54.420Z,26.70
2019-02-22T12:00:54.470Z,18.70
2019-02-22T12:01:55.342Z,20.60
2019-02-22T12:02:54.382Z,20.90
2019-02-22T12:03:54.797Z,19.20
2019-02-22T12:04:54.388Z,20.70
2019-02-22T12:05:54.370Z,16.00
2019-02-22T12:06:54.360Z,17.50
2019-02-22T12:07:54.553Z,17.20
2019-02-22T12:08:54.330Z,15.50
2019-02-22T12:09:54.314Z,13.80
2019-02-22T12:10:55.238Z,17.70
2019-02-22T12:11:54.326Z,45.40
2019-02-22T12:12:54.334Z,22.60
2019-02-22T12:13:54.315Z,17.40
2019-02-22T12:14:54.264Z,14.90
2019-02-22T12:15:54.266Z,15.90
2019-02-22T12:16:54.234Z,15.70
2019-02-22T12:17:54.267Z,12.50
2019-02-22T12:18:54.232Z,14.90
2019-02-22T12:19:54.358Z,13.20
2019-02-22T12:20:54.210Z,13.90
2019-02-22T12:21:54.204Z,13.60
2019-02-22T12:22:54.795Z,12.30
2019-02-22T12:23:54.279Z,12.50
2019-02-22T12:24:54.309Z,13.30
2019-02-22T12:25:54.219Z,14.20
2019-02-22T12:26:54.123Z,15.20
2019-02-22T12:27:54.117Z,12.50
2019-02-22T12:28:54.160Z,13.60
2019-02-22T12:29:54.123Z,13.00
2019-02-22T12:30:54.121Z,20.00
2019-02-22T12:31:54.373Z,13.60
2019-02-22T12:32:54.057Z,15.70
2019-02-22T12:33:54.128Z,11.70
2019-02-22T12:34:54.046Z,14.40
2019-02-22T12:35:54.041Z,14.70
2019-02-22T12:36:54.067Z,13.10
2019-02-22T12:37:54.110Z,17.50
2019-02-22T12:38:54.005Z,11.60
2019-02-22T12:39:54.063Z,14.20
2019-02-22T12:40:54.758Z,12.70
2019-02-22T12:41:54.758Z,13.20
2019-02-22T12:42:54.842Z,15.10
2019-02-22T12:43:54.060Z,15.70
2019-02-22T12:45:02.495Z,15.80
2019-02-22T12:45:54.926Z,18.30
2019-02-22T12:46:54.241Z,15.30
2019-02-22T12:47:53.994Z,12.60
2019-02-22T12:48:54.707Z,19.90
2019-02-22T12:49:54.315Z,13.70
2019-02-22T12:50:53.900Z,13.00
2019-02-22T12:51:54.945Z,10.70
2019-02-22T12:52:53.958Z,10.20
2019-02-22T12:53:53.890Z,10.70
2019-02-22T12:54:53.913Z,11.70
2019-02-22T12:55:54.132Z,11.80